createdAt,value
2023-02-02T00:01:01.701Z,66.79
2023-02-02T00:03:28.386Z,66.88
2023-02-02T00:05:54.996Z,67.01
2023-02-02T00:08:22.453Z,67.51
2023-02-02T00:10:50.660Z,67.84
2023-02-02T00:13:17.451Z,67.76
2023-02-02T00:15:44.192Z,67.42
2023-02-02T00:18:11.036Z,67.35
2023-02-02T00:20:37.654Z,67.24
2023-02-02T00:23:04.685Z,67.52
2023-02-02T00:25:32.054Z,67.57
2023-02-02T00:27:58.791Z,67.72
2023-02-02T00:30:25.451Z,67.97
2023-02-02T00:32:53.208Z,68.56
2023-02-02T00:35:20.443Z,68.06
2023-02-02T00:37:47.030Z,68.52
2023-02-02T00:40:13.825Z,68.77
2023-02-02T00:42:40.709Z,68.57
2023-02-02T00:45:16.889Z,68.88
2023-02-02T00:47:47.553Z,67.91
2023-02-02T00:50:17.353Z,68.14
2023-02-02T00:52:43.998Z,68.63
2023-02-02T00:55:12.274Z,68.41
2023-02-02T00:57:38.997Z,68.59
2023-02-02T01:00:12.082Z,68.91
2023-02-02T01:02:38.697Z,69.26
2023-02-02T01:05:06.622Z,69.61
2023-02-02T01:07:33.216Z,69.28
2023-02-02T01:09:59.841Z,69.90
2023-02-02T01:12:26.424Z,69.95
2023-02-02T01:14:53.079Z,69.86
2023-02-02T01:17:21.180Z,69.70
2023-02-02T01:19:47.742Z,69.72
2023-02-02T01:22:14.433Z,69.70
2023-02-02T01:24:40.987Z,70.06
2023-02-02T01:27:07.750Z,70.37
2023-02-02T01:29:34.483Z,71.21
2023-02-02T01:32:01.226Z,70.48
2023-02-02T01:34:28.265Z,71.00
2023-02-02T01:36:54.822Z,71.33
2023-02-02T01:39:21.354Z,70.63
2023-02-02T01:41:48.126Z,71.05
2023-02-02T01:44:52.087Z,70.79
2023-02-02T01:47:20.890Z,69.94
2023-02-02T01:49:48.038Z,70.32
2023-02-02T01:52:19.469Z,70.36
2023-02-02T01:54:51.663Z,71.13
2023-02-02T01:58:02.307Z,71.02
2023-02-02T02:00:28.915Z,70.48
2023-02-02T02:03:02.266Z,70.50
2023-02-02T02:05:33.869Z,71.38
2023-02-02T02:08:15.388Z,71.33
2023-02-02T02:10:42.160Z,70.84
2023-02-02T02:13:09.816Z,70.46
2023-02-02T02:16:04.598Z,70.92
2023-02-02T02:19:07.931Z,70.51
2023-02-02T02:22:01.816Z,71.19
2023-02-02T02:25:05.994Z,71.45
2023-02-02T02:28:03.695Z,70.63
2023-02-02T02:31:10.664Z,70.38
2023-02-02T02:34:02.173Z,70.01
2023-02-02T02:36:48.265Z,70.58
2023-02-02T02:39:56.793Z,69.68
2023-02-02T02:42:27.462Z,69.98
2023-02-02T02:44:57.462Z,69.98
2023-02-02T02:47:24.499Z,69.20
2023-02-02T02:49:51.126Z,68.98
2023-02-02T02:52:17.762Z,70.23
2023-02-02T02:54:49.719Z,69.53
2023-02-02T02:57:49.329Z,69.50
2023-02-02T03:00:37.366Z,68.44
2023-02-02T03:03:22.715Z,69.02
2023-02-02T03:06:08.189Z,69.52
2023-02-02T03:08:40.709Z,69.50
2023-02-02T03:11:10.528Z,69.29
2023-02-02T03:13:37.469Z,69.68
2023-02-02T03:16:04.622Z,69.59
2023-02-02T03:18:33.197Z,69.93
2023-02-02T03:21:00.439Z,69.44
2023-02-02T03:23:27.581Z,69.34
2023-02-02T03:25:55.103Z,69.34
2023-02-02T03:28:23.526Z,69.57
2023-02-02T03:30:51.866Z,69.35
2023-02-02T03:33:18.804Z,69.83
2023-02-02T03:35:45.843Z,69.65
2023-02-02T03:38:12.744Z,69.82
2023-02-02T03:40:40.264Z,69.86
2023-02-02T03:43:07.518Z,69.89
2023-02-02T03:45:37.310Z,70.36
2023-02-02T03:48:05.238Z,69.59
2023-02-02T03:50:32.524Z,69.35
2023-02-02T03:52:59.193Z,69.16
2023-02-02T03:55:26.017Z,69.98
2023-02-02T03:57:52.778Z,69.86
2023-02-02T04:00:19.698Z,70.48
2023-02-02T04:02:46.324Z,69.90
2023-02-02T04:05:12.929Z,70.65
2023-02-02T04:07:39.437Z,70.71
2023-02-02T04:10:06.277Z,70.89
2023-02-02T04:12:32.928Z,71.05
2023-02-02T04:14:59.453Z,70.81
2023-02-02T04:17:26.094Z,70.39
2023-02-02T04:19:57.991Z,71.11
2023-02-02T04:22:26.183Z,71.02
2023-02-02T04:24:53.073Z,70.64
2023-02-02T04:27:19.714Z,70.96
2023-02-02T04:29:46.291Z,71.44
2023-02-02T04:32:15.882Z,71.24
2023-02-02T04:34:42.905Z,71.69
2023-02-02T04:37:10.403Z,71.02
2023-02-02T04:39:37.008Z,71.33
2023-02-02T04:42:03.859Z,72.21
2023-02-02T04:44:30.372Z,71.91
2023-02-02T04:46:56.886Z,72.02
2023-02-02T04:49:24.160Z,71.93
2023-02-02T04:51:50.758Z,71.69
2023-02-02T04:54:17.404Z,71.99
2023-02-02T04:56:44.160Z,72.28
2023-02-02T04:59:10.706Z,72.29
2023-02-02T05:01:37.276Z,72.25
2023-02-02T05:04:03.967Z,72.94
2023-02-02T05:06:30.559Z,72.76
2023-02-02T05:08:57.218Z,73.42
2023-02-02T05:11:24.174Z,73.75
2023-02-02T05:13:53.173Z,74.08
2023-02-02T05:16:20.340Z,73.52
2023-02-02T05:18:54.010Z,74.49
2023-02-02T05:21:21.627Z,74.96
2023-02-02T05:23:48.648Z,74.38
2023-02-02T05:26:18.538Z,75.06
2023-02-02T05:28:45.487Z,75.37
2023-02-02T05:31:12.434Z,75.63
2023-02-02T05:33:39.070Z,76.34
2023-02-02T05:36:06.245Z,75.00
2023-02-02T05:38:32.791Z,75.09
2023-02-02T05:41:00.437Z,74.57
2023-02-02T05:43:28.829Z,75.91
2023-02-02T05:45:55.360Z,75.46
2023-02-02T05:48:22.216Z,76.22
2023-02-02T05:50:59.829Z,76.30
2023-02-02T05:53:27.439Z,76.84
2023-02-02T05:55:54.069Z,76.93
2023-02-02T05:58:20.744Z,77.68
2023-02-02T06:00:47.255Z,77.50
2023-02-02T06:03:13.944Z,77.52
2023-02-02T06:05:40.563Z,77.81
2023-02-02T06:08:07.157Z,77.89
2023-02-02T06:10:33.822Z,77.07
2023-02-02T06:13:00.349Z,77.73
2023-02-02T06:15:28.931Z,78.00
2023-02-02T06:17:55.541Z,77.74
2023-02-02T06:20:22.551Z,77.59
2023-02-02T06:22:49.211Z,77.32
2023-02-02T06:25:15.865Z,78.04
2023-02-02T06:27:42.478Z,77.66
2023-02-02T06:30:09.821Z,77.44
2023-02-02T06:32:36.447Z,77.79
2023-02-02T06:35:03.067Z,77.25
2023-02-02T06:37:30.849Z,76.84
2023-02-02T06:39:57.478Z,77.09
2023-02-02T06:42:24.085Z,77.80
2023-02-02T06:44:50.680Z,77.57
2023-02-02T06:47:17.191Z,77.39
2023-02-02T06:49:43.701Z,77.14
2023-02-02T06:52:10.182Z,76.81
2023-02-02T06:54:36.750Z,77.20
2023-02-02T06:57:03.363Z,76.85
2023-02-02T06:59:29.868Z,77.28
2023-02-02T07:01:56.561Z,77.85
2023-02-02T07:04:23.163Z,77.10
2023-02-02T07:06:49.802Z,77.06
2023-02-02T07:09:17.682Z,77.74
2023-02-02T07:11:44.933Z,77.40
2023-02-02T07:14:12.406Z,76.84
2023-02-02T07:16:38.993Z,76.59
2023-02-02T07:19:05.602Z,76.19
2023-02-02T07:21:36.346Z,76.86
2023-02-02T07:24:05.418Z,75.81
2023-02-02T07:26:34.025Z,75.94
2023-02-02T07:29:00.681Z,74.90
2023-02-02T07:31:27.961Z,74.74
2023-02-02T07:33:54.573Z,73.45
2023-02-02T07:36:23.819Z,72.93
2023-02-02T07:38:57.312Z,71.44
2023-02-02T07:41:24.617Z,70.03
2023-02-02T07:43:51.505Z,69.31
2023-02-02T07:46:19.028Z,68.27
2023-02-02T07:48:45.658Z,66.75
2023-02-02T07:51:17.510Z,65.74
2023-02-02T07:53:49.959Z,63.42
2023-02-02T07:56:19.804Z,61.75
2023-02-02T07:58:46.816Z,60.18
2023-02-02T08:01:15.995Z,61.40
2023-02-02T08:03:43.354Z,59.75
2023-02-02T08:06:18.872Z,58.69
2023-02-02T08:08:45.979Z,58.66
2023-02-02T08:11:14.077Z,56.99
2023-02-02T08:13:42.236Z,55.38
2023-02-02T08:16:10.249Z,54.37
2023-02-02T08:18:38.384Z,53.73
2023-02-02T08:21:06.747Z,53.16
2023-02-02T08:23:33.430Z,51.56
2023-02-02T08:26:27.270Z,49.84
2023-02-02T08:28:57.371Z,48.42
2023-02-02T08:31:27.502Z,48.03
2023-02-02T08:33:55.039Z,46.71
2023-02-02T08:36:23.817Z,46.23
2023-02-02T08:38:51.017Z,44.26
2023-02-02T08:41:20.230Z,42.95
2023-02-02T08:43:46.817Z,42.67
2023-02-02T08:46:17.678Z,41.82
2023-02-02T08:48:44.658Z,41.68
2023-02-02T08:51:15.029Z,40.58
2023-02-02T08:53:42.554Z,40.82
2023-02-02T08:56:17.774Z,39.46
2023-02-02T08:58:46.788Z,39.33
2023-02-02T09:01:17.594Z,39.76
2023-02-02T09:03:45.092Z,39.95
2023-02-02T09:06:15.035Z,39.51
2023-02-02T09:08:42.079Z,38.69
2023-02-02T09:11:14.164Z,40.03
2023-02-02T09:13:42.329Z,39.59
2023-02-02T09:16:12.098Z,41.73
2023-02-02T09:18:40.141Z,41.85
2023-02-02T09:21:09.772Z,41.35
2023-02-02T09:23:39.747Z,41.58
2023-02-02T09:26:15.515Z,40.45
2023-02-02T09:28:44.982Z,40.96
2023-02-02T09:31:12.379Z,40.56
2023-02-02T09:33:39.384Z,41.84
2023-02-02T09:36:11.665Z,42.82
2023-02-02T09:38:39.459Z,42.82
2023-02-02T09:41:14.851Z,42.33
2023-02-02T09:43:56.463Z,43.10
2023-02-02T09:46:48.423Z,41.17
2023-02-02T09:49:23.133Z,39.85
2023-02-02T09:51:57.460Z,39.49
2023-02-02T09:54:36.365Z,37.97
2023-02-02T09:57:10.478Z,37.75
2023-02-02T09:59:41.739Z,35.69
2023-02-02T10:02:25.677Z,36.72
2023-02-02T10:05:00.807Z,36.68
2023-02-02T10:07:33.294Z,35.22
2023-02-02T10:10:05.269Z,34.86
2023-02-02T10:12:57.667Z,34.66
2023-02-02T10:15:46.006Z,35.29
2023-02-02T10:19:03.932Z,33.75
2023-02-02T10:21:45.637Z,33.33
2023-02-02T10:24:24.233Z,33.23
2023-02-02T10:26:54.665Z,33.14
2023-02-02T10:29:24.229Z,32.53
2023-02-02T10:32:14.996Z,31.02
2023-02-02T10:35:10.951Z,30.62
2023-02-02T10:38:02.669Z,32.44
2023-02-02T10:40:42.889Z,31.21
2023-02-02T10:43:47.370Z,30.24
2023-02-02T10:46:20.398Z,30.05
2023-02-02T10:48:48.853Z,30.38
2023-02-02T10:51:28.281Z,30.60
2023-02-02T10:53:59.097Z,29.47
2023-02-02T10:56:36.937Z,29.91
2023-02-02T10:59:06.787Z,29.04
2023-02-02T11:01:33.502Z,29.83
2023-02-02T11:04:18.926Z,28.19
2023-02-02T11:06:52.121Z,27.57
2023-02-02T11:09:28.439Z,28.78
2023-02-02T11:12:03.749Z,28.09
2023-02-02T11:14:45.193Z,31.08
2023-02-02T11:17:25.693Z,30.40
2023-02-02T11:19:53.065Z,29.20
2023-02-02T11:22:35.633Z,28.18
2023-02-02T11:25:28.026Z,28.98
2023-02-02T11:27:54.671Z,27.84
2023-02-02T11:30:27.169Z,27.49
2023-02-02T11:32:55.684Z,28.17
2023-02-02T11:35:31.691Z,26.35
2023-02-02T11:38:16.599Z,25.81
2023-02-02T11:41:02.316Z,24.90
2023-02-02T11:43:36.271Z,27.47
2023-02-02T11:46:06.420Z,27.58
2023-02-02T11:48:38.807Z,27.16
2023-02-02T11:51:07.991Z,27.21
2023-02-02T11:53:47.781Z,27.76
2023-02-02T11:56:25.119Z,26.81
2023-02-02T11:58:55.408Z,26.70
2023-02-02T12:01:29.089Z,26.76
2023-02-02T12:03:58.260Z,25.81
2023-02-02T12:06:38.204Z,26.59
2023-02-02T12:09:25.522Z,25.13
2023-02-02T12:11:51.967Z,25.83
2023-02-02T12:14:31.540Z,26.37
2023-02-02T12:17:00.826Z,25.32
2023-02-02T12:19:51.489Z,22.80
2023-02-02T12:22:55.316Z,24.38
2023-02-02T12:25:36.930Z,22.67
2023-02-02T12:28:30.924Z,22.92
2023-02-02T12:31:22.277Z,23.23
2023-02-02T12:33:52.057Z,22.92
2023-02-02T12:36:49.093Z,21.24
2023-02-02T12:39:30.605Z,21.94
2023-02-02T12:42:21.082Z,20.78
2023-02-02T12:44:55.211Z,19.97
2023-02-02T12:47:38.410Z,19.97
2023-02-02T12:50:12.496Z,20.62
2023-02-02T12:53:17.520Z,19.58
2023-02-02T12:56:02.830Z,19.75
2023-02-02T12:58:40.918Z,19.40
2023-02-02T13:01:33.467Z,20.52
2023-02-02T13:04:27.035Z,19.33
2023-02-02T13:07:25.200Z,19.54
2023-02-02T13:10:17.991Z,19.93
2023-02-02T13:12:51.872Z,20.17
2023-02-02T13:15:24.313Z,20.07
2023-02-02T13:18:01.221Z,19.10
2023-02-02T13:20:45.311Z,18.81
2023-02-02T13:23:25.493Z,18.32
2023-02-02T13:26:06.325Z,19.57
2023-02-02T13:28:43.550Z,19.23
2023-02-02T13:31:16.636Z,17.52
2023-02-02T13:33:45.867Z,16.71
2023-02-02T13:36:28.460Z,17.05
2023-02-02T13:38:58.516Z,16.08
2023-02-02T13:41:25.695Z,15.17
2023-02-02T13:44:29.359Z,16.21
2023-02-02T13:47:33.344Z,17.69
2023-02-02T13:50:07.613Z,16.86
2023-02-02T13:53:08.683Z,16.30
2023-02-02T13:55:57.096Z,16.45
2023-02-02T13:58:48.680Z,16.17
2023-02-02T14:01:16.073Z,15.46
2023-02-02T14:03:51.178Z,14.96
2023-02-02T14:06:20.750Z,15.90
2023-02-02T14:09:02.998Z,14.17
2023-02-02T14:11:33.019Z,14.93
2023-02-02T14:14:28.640Z,14.49
2023-02-02T14:16:56.600Z,14.25
2023-02-02T14:19:29.186Z,14.93
2023-02-02T14:22:13.112Z,15.64
2023-02-02T14:24:50.163Z,15.53
2023-02-02T14:27:16.751Z,15.15
2023-02-02T14:29:47.094Z,14.84
2023-02-02T14:32:29.193Z,14.88
2023-02-02T14:35:00.142Z,15.25
2023-02-02T14:37:26.657Z,15.16
2023-02-02T14:40:06.106Z,14.49
2023-02-02T14:43:10.369Z,14.86
2023-02-02T14:45:41.274Z,14.98
2023-02-02T14:48:26.648Z,14.60
2023-02-02T14:51:05.715Z,15.07
2023-02-02T14:53:36.645Z,15.85
2023-02-02T14:56:19.181Z,14.79
2023-02-02T14:58:46.034Z,14.71
2023-02-02T15:01:27.265Z,14.96
2023-02-02T15:03:57.217Z,14.07
2023-02-02T15:06:40.331Z,14.08
2023-02-02T15:12:14.661Z,13.90
2023-02-02T15:14:53.371Z,13.60
2023-02-02T15:17:26.141Z,14.01
2023-02-02T15:20:06.615Z,13.77
2023-02-02T15:22:47.609Z,13.32
2023-02-02T15:25:26.251Z,13.44
2023-02-02T15:27:58.001Z,14.03
2023-02-02T15:30:28.188Z,13.86
2023-02-02T15:32:56.092Z,14.15
2023-02-02T15:35:30.793Z,14.67
2023-02-02T15:38:04.617Z,14.94
2023-02-02T15:40:32.380Z,14.94
2023-02-02T15:43:03.028Z,15.56
2023-02-02T15:45:34.739Z,15.64
2023-02-02T15:48:09.047Z,16.26
2023-02-02T15:50:36.582Z,16.40
2023-02-02T15:53:03.399Z,16.41
2023-02-02T15:55:35.441Z,16.36
2023-02-02T15:58:03.291Z,15.99
2023-02-02T16:00:31.503Z,16.35
2023-02-02T16:03:01.141Z,16.74
2023-02-02T16:05:37.137Z,17.06
2023-02-02T16:08:14.056Z,18.09
2023-02-02T16:10:46.668Z,18.53
2023-02-02T16:13:32.919Z,18.49
2023-02-02T16:16:06.985Z,18.93
2023-02-02T16:18:35.494Z,18.89
2023-02-02T16:21:05.953Z,20.10
2023-02-02T16:23:35.885Z,21.79
2023-02-02T16:26:05.866Z,23.71
2023-02-02T16:28:33.593Z,24.16
2023-02-02T16:31:02.381Z,24.38
2023-02-02T16:33:40.790Z,25.58
2023-02-02T16:36:25.606Z,26.12
2023-02-02T16:38:54.591Z,27.60
2023-02-02T16:41:34.867Z,27.99
2023-02-02T16:44:30.604Z,28.90
2023-02-02T16:46:58.541Z,29.53
2023-02-02T16:49:26.916Z,30.21
2023-02-02T16:52:10.041Z,30.62
2023-02-02T16:54:38.011Z,30.92
2023-02-02T16:57:05.361Z,31.08
2023-02-02T16:59:35.182Z,31.58
2023-02-02T17:02:16.217Z,31.89
2023-02-02T17:04:48.188Z,32.73
2023-02-02T17:07:16.514Z,33.45
2023-02-02T17:09:45.894Z,33.54
2023-02-02T17:12:34.443Z,33.75
2023-02-02T17:15:23.768Z,33.67
2023-02-02T17:17:52.221Z,35.48
2023-02-02T17:20:19.869Z,35.84
2023-02-02T17:22:49.283Z,37.05
2023-02-02T17:25:19.587Z,36.72
2023-02-02T17:27:46.960Z,37.14
2023-02-02T17:30:18.522Z,37.47
2023-02-02T17:32:45.513Z,38.14
2023-02-02T17:35:18.320Z,38.13
2023-02-02T17:37:44.861Z,39.36
2023-02-02T17:40:15.896Z,39.84
2023-02-02T17:42:44.651Z,38.52
2023-02-02T17:45:16.751Z,39.37
2023-02-02T17:47:43.412Z,40.15
2023-02-02T17:50:11.240Z,40.68
2023-02-02T17:52:38.596Z,41.47
2023-02-02T17:55:32.557Z,41.24
2023-02-02T17:57:59.171Z,41.67
2023-02-02T18:00:30.000Z,42.73
2023-02-02T18:03:13.156Z,42.20
2023-02-02T18:05:42.768Z,43.21
2023-02-02T18:08:11.998Z,43.16
2023-02-02T18:10:39.200Z,43.21
2023-02-02T18:13:06.480Z,43.90
2023-02-02T18:15:35.005Z,44.30
2023-02-02T18:18:02.143Z,43.88
2023-02-02T18:20:28.679Z,43.96
2023-02-02T18:22:55.233Z,44.57
2023-02-02T18:25:21.924Z,45.15
2023-02-02T18:27:51.258Z,45.47
2023-02-02T18:30:18.703Z,45.52
2023-02-02T18:32:46.141Z,46.11
2023-02-02T18:35:12.710Z,46.89
2023-02-02T18:37:39.359Z,46.34
2023-02-02T18:40:07.947Z,47.06
2023-02-02T18:42:36.000Z,47.92
2023-02-02T18:45:03.378Z,48.28
2023-02-02T18:47:30.578Z,48.68
2023-02-02T18:49:57.187Z,48.80
2023-02-02T18:52:23.818Z,48.89
2023-02-02T18:54:50.469Z,48.72
2023-02-02T18:57:17.197Z,49.18
2023-02-02T18:59:44.094Z,49.50
2023-02-02T19:02:15.260Z,49.03
2023-02-02T19:05:04.840Z,49.04
2023-02-02T19:07:51.207Z,49.40
2023-02-02T19:10:18.918Z,49.57
2023-02-02T19:13:19.261Z,49.17
2023-02-02T19:15:50.370Z,49.08
2023-02-02T19:18:20.546Z,49.61
2023-02-02T19:20:47.764Z,50.42
2023-02-02T19:23:16.713Z,49.88
2023-02-02T19:25:51.521Z,50.75
2023-02-02T19:28:30.618Z,50.65
2023-02-02T19:31:00.167Z,50.40
2023-02-02T19:33:42.732Z,50.18
2023-02-02T19:36:17.846Z,50.81
2023-02-02T19:38:44.813Z,51.07
2023-02-02T19:41:19.370Z,51.33
2023-02-02T19:43:55.153Z,51.75
2023-02-02T19:46:24.282Z,51.82
2023-02-02T19:49:03.973Z,51.08
2023-02-02T19:51:33.620Z,52.50
2023-02-02T19:54:01.186Z,52.08
2023-02-02T19:56:34.861Z,52.96
2023-02-02T19:59:01.714Z,52.64
2023-02-02T20:01:32.867Z,53.42
2023-02-02T20:04:03.588Z,53.33
2023-02-02T20:06:32.176Z,53.33
2023-02-02T20:09:01.072Z,53.23
2023-02-02T20:11:39.576Z,52.92
2023-02-02T20:14:36.821Z,52.98
2023-02-02T20:17:12.532Z,52.73
2023-02-02T20:19:41.701Z,52.44
2023-02-02T20:22:40.839Z,52.29
2023-02-02T20:25:09.025Z,52.74
2023-02-02T20:27:35.634Z,52.92
2023-02-02T20:30:17.287Z,52.91
2023-02-02T20:32:43.886Z,52.60
2023-02-02T20:35:39.905Z,52.85
2023-02-02T20:38:22.073Z,53.78
2023-02-02T20:40:48.887Z,53.20
2023-02-02T20:43:16.007Z,53.70
2023-02-02T20:45:43.031Z,54.24
2023-02-02T20:48:12.196Z,53.61
2023-02-02T20:50:39.525Z,53.27
2023-02-02T20:53:06.356Z,53.40
2023-02-02T20:55:36.026Z,54.25
2023-02-02T20:58:04.407Z,54.12
2023-02-02T21:00:31.079Z,54.27
2023-02-02T21:03:01.121Z,53.98
2023-02-02T21:05:27.669Z,54.24
2023-02-02T21:08:00.428Z,53.55
2023-02-02T21:10:36.855Z,51.96
2023-02-02T21:13:06.309Z,52.21
2023-02-02T21:15:51.190Z,52.75
2023-02-02T21:18:20.596Z,52.46
2023-02-02T21:20:47.105Z,52.07
2023-02-02T21:23:20.381Z,54.09
2023-02-02T21:25:49.580Z,55.20
2023-02-02T21:28:24.183Z,54.33
2023-02-02T21:30:56.630Z,54.57
2023-02-02T21:33:25.911Z,54.91
2023-02-02T21:35:52.450Z,55.19
2023-02-02T21:38:21.075Z,55.39
2023-02-02T21:41:00.169Z,55.87
2023-02-02T21:43:26.986Z,56.38
2023-02-02T21:46:04.306Z,57.13
2023-02-02T21:48:38.692Z,56.31
2023-02-02T21:51:27.975Z,56.90
2023-02-02T21:53:54.519Z,57.46
2023-02-02T21:56:27.122Z,57.31
2023-02-02T21:58:57.023Z,57.70
2023-02-02T22:01:35.855Z,57.88
2023-02-02T22:04:02.597Z,57.84
2023-02-02T22:06:40.384Z,58.04
2023-02-02T22:09:14.990Z,58.52
2023-02-02T22:11:50.469Z,58.78
2023-02-02T22:14:50.500Z,58.61
2023-02-02T22:17:25.104Z,59.15
2023-02-02T22:20:09.034Z,59.01
2023-02-02T22:22:47.705Z,59.16
2023-02-02T22:25:16.981Z,58.63
2023-02-02T22:27:55.376Z,59.11
2023-02-02T22:30:31.499Z,59.07
2023-02-02T22:32:58.216Z,59.63
2023-02-02T22:35:25.211Z,59.49
2023-02-02T22:37:51.841Z,60.18
2023-02-02T22:40:22.331Z,60.13
2023-02-02T22:42:53.454Z,60.83
2023-02-02T22:45:20.820Z,59.93
2023-02-02T22:47:47.987Z,60.18
2023-02-02T22:50:20.530Z,60.54
2023-02-02T22:52:47.708Z,60.09
2023-02-02T22:55:14.859Z,58.98
2023-02-02T22:57:41.656Z,59.26
2023-02-02T23:00:13.798Z,59.08
2023-02-02T23:02:41.549Z,60.09
2023-02-02T23:05:10.634Z,60.17
2023-02-02T23:07:37.926Z,59.82
2023-02-02T23:10:05.899Z,60.67
2023-02-02T23:12:32.636Z,61.10
2023-02-02T23:14:59.433Z,61.38
2023-02-02T23:17:25.964Z,60.56
2023-02-02T23:19:52.521Z,61.67
2023-02-02T23:22:19.041Z,62.71
2023-02-02T23:24:45.649Z,62.39
2023-02-02T23:27:13.039Z,62.60
2023-02-02T23:29:39.781Z,63.31
2023-02-02T23:32:07.125Z,63.42
2023-02-02T23:34:33.804Z,63.62
2023-02-02T23:37:00.337Z,63.01
2023-02-02T23:39:26.905Z,62.92
2023-02-02T23:41:53.415Z,63.34
2023-02-02T23:44:19.980Z,63.70
2023-02-02T23:46:47.026Z,62.94
2023-02-02T23:49:14.000Z,63.89
2023-02-02T23:51:40.705Z,63.51
2023-02-02T23:54:07.939Z,63.80
2023-02-02T23:56:34.503Z,63.58
2023-02-02T23:59:01.029Z,63.52
